Time;durP1;ratioP1;P1;durP2;ratioP2;P2;SDS_P1;SDS_P2;PMS_P1;PMS_P2;Temp;Humidity;BMP_temperature;BMP_pressure;BME280_temperature;BME280_humidity;BME280_pressure;Samples;Min_cycle;Max_cycle;Signal;HPM_P1;HPM_P2
2022/03/10 00:00:05;;;;;;;15.13;4.95;;;;;;;6.68;72.46;100169.06;5018724;28;20456;-46
2022/03/10 00:02:32;;;;;;;9.43;4.57;;;;;;;6.66;71.10;100170.72;5018442;28;20131;-49
2022/03/10 00:04:59;;;;;;;13.25;4.82;;;;;;;6.69;72.21;100170.78;5021137;28;20390;-46
2022/03/10 00:07:25;;;;;;;8.25;4.28;;;;;;;6.67;71.92;100176.75;5024048;28;20172;-48
2022/03/10 00:09:52;;;;;;;16.40;4.88;;;;;;;6.66;71.43;100181.03;5028282;28;20050;-48
2022/03/10 00:12:19;;;;;;;8.52;4.28;;;;;;;6.65;70.56;100178.44;5026249;28;20049;-47
2022/03/10 00:14:45;;;;;;;13.40;5.10;;;;;;;6.63;70.67;100174.97;5025593;28;20397;-48
2022/03/10 00:17:12;;;;;;;12.55;4.90;;;;;;;6.61;71.14;100174.97;5025774;28;20045;-48
2022/03/10 00:19:39;;;;;;;9.73;4.15;;;;;;;6.58;71.51;100177.47;5023382;28;20041;-50
2022/03/10 00:22:06;;;;;;;12.77;5.35;;;;;;;6.60;70.99;100180.06;5023353;28;20206;-45
2022/03/10 00:24:34;;;;;;;12.05;4.75;;;;;;;6.54;71.02;100183.41;5027143;28;20076;-49
2022/03/10 00:27:02;;;;;;;15.93;5.18;;;;;;;6.52;71.98;100187.69;5024055;28;20052;-50
2022/03/10 00:29:30;;;;;;;10.82;4.95;;;;;;;6.46;72.57;100182.44;5024105;28;20413;-46
2022/03/10 00:31:56;;;;;;;12.75;5.00;;;;;;;6.43;72.00;100184.09;5023985;28;20100;-47
2022/03/10 00:34:23;;;;;;;8.85;4.90;;;;;;;6.36;73.13;100184.88;5024452;28;20045;-46
2022/03/10 00:36:49;;;;;;;8.48;4.13;;;;;;;6.32;72.38;100183.09;5019467;28;21701;-52
2022/03/10 00:39:16;;;;;;;13.02;5.15;;;;;;;6.29;72.16;100190.75;5017169;28;20103;-48
2022/03/10 00:41:43;;;;;;;7.38;4.25;;;;;;;6.24;72.85;100187.19;5019392;28;20057;-47
2022/03/10 00:44:09;;;;;;;8.73;4.25;;;;;;;6.19;72.49;100194.88;5022313;28;20428;-47
2022/03/10 00:46:36;;;;;;;9.77;4.63;;;;;;;6.15;73.13;100183.63;5015473;28;20130;-49
2022/03/10 00:49:02;;;;;;;10.95;4.95;;;;;;;6.20;72.35;100190.56;5018123;28;20262;-45
2022/03/10 00:51:29;;;;;;;10.55;7.18;;;;;;;6.22;74.08;100189.78;5018610;28;20394;-48
2022/03/10 00:53:55;;;;;;;9.55;4.80;;;;;;;6.25;73.31;100199.25;5015685;28;20638;-45
2022/03/10 00:56:22;;;;;;;6.00;4.82;;;;;;;6.31;74.07;100194.19;5008111;28;20062;-49
2022/03/10 00:58:48;;;;;;;13.55;5.15;;;;;;;6.34;73.89;100188.22;5016380;28;20042;-46
2022/03/10 01:01:15;;;;;;;9.80;4.22;;;;;;;6.32;74.34;100190.81;5021432;28;20046;-46
2022/03/10 01:03:42;;;;;;;15.20;4.55;;;;;;;6.40;73.02;100188.34;5015318;28;20076;-46
2022/03/10 01:06:10;;;;;;;8.20;4.00;;;;;;;6.42;74.88;100190.09;5023073;28;20045;-49
2022/03/10 01:08:36;;;;;;;11.40;5.53;;;;;;;6.47;74.52;100179.00;5024164;28;20045;-49
2022/03/10 01:11:03;;;;;;;12.30;5.00;;;;;;;6.53;75.50;100184.28;5027256;28;20115;-48
2022/03/10 01:13:29;;;;;;;9.27;4.80;;;;;;;6.59;74.15;100191.22;5025404;28;20045;-45
2022/03/10 01:15:56;;;;;;;5.72;2.72;;;;;;;6.62;74.98;100188.69;5027452;28;20444;-46
2022/03/10 01:18:23;;;;;;;7.72;2.50;;;;;;;6.69;74.50;100188.81;5024855;28;20745;-50
2022/03/10 01:20:52;;;;;;;8.43;4.25;;;;;;;6.72;74.64;100195.72;5026004;28;20049;-50
2022/03/10 01:23:20;;;;;;;13.10;5.32;;;;;;;6.76;73.76;100188.91;5025035;28;20200;-46
2022/03/10 01:25:50;;;;;;;9.45;4.75;;;;;;;6.79;74.93;100186.41;5027620;28;20049;-47
2022/03/10 01:28:19;;;;;;;8.07;3.72;;;;;;;6.84;73.72;100191.59;5021850;28;20050;-49
2022/03/10 01:30:47;;;;;;;14.45;4.18;;;;;;;6.86;74.40;100188.19;5024976;28;20072;-48
2022/03/10 01:33:15;;;;;;;10.57;4.40;;;;;;;6.82;74.41;100187.28;5026580;28;20053;-54
2022/03/10 01:35:43;;;;;;;6.95;5.20;;;;;;;6.80;74.35;100190.69;5025776;28;20505;-47
2022/03/10 01:38:10;;;;;;;8.35;3.97;;;;;;;6.82;74.75;100191.56;5025078;28;20041;-51
2022/03/10 01:40:36;;;;;;;9.13;4.95;;;;;;;6.84;73.43;100189.88;5028105;28;20103;-45
2022/03/10 01:43:03;;;;;;;9.23;3.78;;;;;;;6.87;74.40;100189.94;5025147;28;20088;-50
2022/03/10 01:45:30;;;;;;;8.02;4.22;;;;;;;6.90;74.44;100186.53;5029660;28;20194;-44
2022/03/10 01:47:56;;;;;;;6.63;3.67;;;;;;;6.91;74.38;100196.88;5024436;28;20135;-50
2022/03/10 01:50:23;;;;;;;7.43;4.50;;;;;;;6.94;74.46;100181.47;5027767;28;20045;-52
2022/03/10 01:53:07;;;;;;;8.95;5.63;;;;;;;6.94;74.20;100189.19;5030095;28;20048;-48
2022/03/10 01:55:34;;;;;;;6.10;3.78;;;;;;;6.94;74.33;100191.78;5025463;28;20104;-49
2022/03/10 01:58:00;;;;;;;14.15;4.30;;;;;;;6.92;74.18;100183.13;5027295;28;20045;-51
2022/03/10 02:00:27;;;;;;;8.15;3.95;;;;;;;6.90;74.80;100189.13;5027312;28;20053;-46
2022/03/10 02:02:54;;;;;;;6.97;2.58;;;;;;;6.88;74.09;100191.66;5029283;28;20639;-50
2022/03/10 02:05:21;;;;;;;5.35;2.65;;;;;;;6.84;73.31;100189.88;5021821;28;20468;-45
2022/03/10 02:10:35;;;;;;;12.02;4.90;;;;;;;6.78;73.82;100189.78;5027014;28;20052;-44
2022/03/10 02:13:02;;;;;;;8.95;2.88;;;;;;;6.73;74.93;100194.88;5027057;28;20737;-45
2022/03/10 02:18:17;;;;;;;8.77;4.00;;;;;;;6.66;73.64;100191.31;5012666;28;20137;-48
2022/03/10 02:20:45;;;;;;;8.57;4.70;;;;;;;6.61;73.78;100198.13;5023245;28;20049;-50
2022/03/10 02:23:14;;;;;;;11.88;5.22;;;;;;;6.57;73.85;100186.03;5025125;28;20107;-51
2022/03/10 02:25:41;;;;;;;7.82;4.65;;;;;;;6.47;73.37;100190.19;5026451;28;20131;-49
2022/03/10 02:28:08;;;;;;;10.48;4.63;;;;;;;6.40;74.16;100178.94;5027641;28;20183;-44
2022/03/10 02:30:35;;;;;;;8.48;5.28;;;;;;;6.36;73.71;100181.41;5021842;28;20061;-49
2022/03/10 02:33:03;;;;;;;9.57;4.70;;;;;;;6.27;74.58;100171.84;5031073;28;20103;-49
2022/03/10 02:35:29;;;;;;;11.57;4.80;;;;;;;6.22;74.59;100168.31;5025451;28;20594;-45
2022/03/10 02:37:56;;;;;;;7.97;4.45;;;;;;;6.09;74.21;100162.97;5031630;28;20041;-46
2022/03/10 02:40:24;;;;;;;7.35;4.55;;;;;;;6.02;75.11;100168.81;5020730;28;20037;-49
2022/03/10 02:42:50;;;;;;;9.20;4.95;;;;;;;6.00;74.21;100168.78;5024431;28;20041;-50
2022/03/10 02:45:21;;;;;;;9.10;4.07;;;;;;;5.99;75.83;100163.59;5025195;28;20049;-49
2022/03/10 02:47:48;;;;;;;6.30;3.35;;;;;;;6.01;75.64;100160.22;5025638;28;20450;-51
2022/03/10 02:50:14;;;;;;;7.07;3.38;;;;;;;6.03;74.93;100156.03;5021167;28;20677;-45
2022/03/10 02:52:43;;;;;;;6.80;3.05;;;;;;;6.04;75.09;100164.56;5025046;28;20091;-44
2022/03/10 02:55:10;;;;;;;5.68;3.55;;;;;;;6.10;74.88;100156.97;5024695;28;20091;-47
2022/03/10 02:57:37;;;;;;;10.73;4.15;;;;;;;6.20;75.41;100157.13;5027508;28;20120;-46
2022/03/10 03:00:05;;;;;;;9.43;4.18;;;;;;;6.21;75.10;100152.00;5026317;28;20049;-48
2022/03/10 03:02:36;;;;;;;9.93;4.25;;;;;;;6.24;75.64;100151.19;5024845;28;20053;-50
2022/03/10 03:05:04;;;;;;;13.48;4.97;;;;;;;6.21;75.00;100162.31;5020914;28;20053;-48
2022/03/10 03:07:31;;;;;;;6.55;4.13;;;;;;;6.24;76.03;100161.47;5025973;28;20049;-46
2022/03/10 03:09:57;;;;;;;7.15;3.33;;;;;;;6.21;75.60;100166.59;5025458;28;20065;-48
2022/03/10 03:12:24;;;;;;;10.45;4.50;;;;;;;6.21;75.56;100158.88;5024099;28;20107;-48
2022/03/10 03:14:50;;;;;;;6.88;4.32;;;;;;;6.19;74.87;100163.13;5024546;28;20041;-48
2022/03/10 03:17:17;;;;;;;7.45;4.80;;;;;;;6.16;74.44;100159.69;5025574;28;20085;-49
2022/03/10 03:19:44;;;;;;;8.63;4.80;;;;;;;6.15;74.50;100157.06;5024125;28;20060;-50
2022/03/10 03:22:11;;;;;;;7.60;4.25;;;;;;;6.19;75.29;100157.97;5026359;28;20050;-48
2022/03/10 03:24:38;;;;;;;11.00;3.35;;;;;;;6.17;75.09;100153.69;5026516;28;20146;-46
2022/03/10 03:27:05;;;;;;;9.88;3.95;;;;;;;6.20;75.15;100154.56;5027546;28;20163;-50
2022/03/10 03:29:31;;;;;;;8.48;3.85;;;;;;;6.19;74.90;100152.84;5022149;28;20054;-49
2022/03/10 03:31:58;;;;;;;6.53;3.58;;;;;;;6.19;74.49;100158.84;5024842;28;20049;-48
2022/03/10 03:34:25;;;;;;;5.32;4.35;;;;;;;6.20;75.99;100159.69;5025383;28;20041;-46
2022/03/10 03:36:51;;;;;;;8.77;4.38;;;;;;;6.16;76.00;100164.81;5021050;28;20065;-49
2022/03/10 03:39:18;;;;;;;5.13;3.88;;;;;;;6.13;75.29;100159.63;5027880;28;20080;-49
2022/03/10 03:41:45;;;;;;;8.38;4.13;;;;;;;6.13;75.00;100154.47;5022912;28;20053;-44
2022/03/10 03:44:12;;;;;;;6.85;3.95;;;;;;;6.17;75.61;100157.94;5024014;28;20123;-49
2022/03/10 03:46:40;;;;;;;6.25;3.92;;;;;;;6.19;75.00;100158.84;5027848;28;20103;-49
2022/03/10 03:49:10;;;;;;;8.70;3.85;;;;;;;6.20;76.51;100158.00;5024424;28;20161;-46
2022/03/10 03:51:37;;;;;;;5.60;3.50;;;;;;;6.24;75.84;100156.34;5021775;28;20069;-49
2022/03/10 03:54:05;;;;;;;7.47;4.35;;;;;;;6.28;76.35;100163.25;5022601;28;20057;-48
2022/03/10 03:56:32;;;;;;;10.70;5.43;;;;;;;6.34;75.96;100162.50;5029223;28;20080;-47
2022/03/10 03:58:59;;;;;;;7.20;4.35;;;;;;;6.33;76.24;100159.09;5024540;28;20057;-46
2022/03/10 04:01:43;;;;;;;10.50;5.00;;;;;;;6.35;76.09;100164.25;5024177;28;20049;-49
2022/03/10 04:04:10;;;;;;;8.55;4.70;;;;;;;6.37;76.31;100163.44;5026652;28;20111;-48
2022/03/10 04:06:37;;;;;;;7.05;3.95;;;;;;;6.40;75.56;100168.63;5023615;28;20049;-47
2022/03/10 04:09:03;;;;;;;10.27;3.78;;;;;;;6.41;75.13;100170.34;5026914;28;20061;-46
2022/03/10 04:11:30;;;;;;;8.60;4.40;;;;;;;6.41;75.09;100179.78;5023752;28;20099;-47
2022/03/10 04:13:56;;;;;;;8.68;4.47;;;;;;;6.41;76.17;100170.34;5024438;28;20045;-48
2022/03/10 04:16:23;;;;;;;7.65;5.22;;;;;;;6.42;76.48;100172.09;5020343;28;20045;-45
2022/03/10 04:18:50;;;;;;;9.07;4.60;;;;;;;6.41;75.32;100179.78;5020238;28;20150;-48
2022/03/10 04:21:34;;;;;;;5.75;3.75;;;;;;;6.45;74.79;100171.25;5024488;28;20183;-47
2022/03/10 04:24:00;;;;;;;5.60;3.63;;;;;;;6.45;74.92;100181.56;5025657;28;20072;-48
2022/03/10 04:26:27;;;;;;;6.05;3.90;;;;;;;6.40;75.16;100173.78;5025980;28;20049;-49
2022/03/10 04:28:54;;;;;;;9.88;4.57;;;;;;;6.37;75.58;100170.28;5023140;28;20103;-49
2022/03/10 04:31:20;;;;;;;6.97;4.30;;;;;;;6.34;75.88;100170.22;5022319;28;20053;-49
2022/03/10 04:33:47;;;;;;;8.38;4.03;;;;;;;6.31;75.04;100168.47;5022791;28;20628;-46
2022/03/10 04:36:13;;;;;;;9.63;2.95;;;;;;;6.29;75.93;100170.16;5020528;28;22145;-48
2022/03/10 04:38:40;;;;;;;7.38;3.80;;;;;;;6.26;75.54;100180.41;5025115;28;20409;-50
2022/03/10 04:41:07;;;;;;;6.50;4.18;;;;;;;6.23;76.04;100175.19;5025232;28;20054;-48
2022/03/10 04:43:33;;;;;;;6.53;4.43;;;;;;;6.22;75.53;100179.50;5021665;28;20104;-50
2022/03/10 04:46:00;;;;;;;9.93;5.00;;;;;;;6.15;75.23;100178.50;5025166;28;20075;-54
2022/03/10 04:48:26;;;;;;;9.13;4.72;;;;;;;6.16;74.61;100172.53;5028665;28;20138;-48
2022/03/10 04:50:53;;;;;;;8.38;4.70;;;;;;;6.12;75.70;100168.16;5029200;28;20049;-45
2022/03/10 04:53:20;;;;;;;7.93;4.63;;;;;;;6.09;74.75;100168.13;5031606;28;20107;-51
2022/03/10 04:55:47;;;;;;;12.50;4.32;;;;;;;6.04;75.34;100177.44;5030375;28;20095;-49
2022/03/10 04:58:14;;;;;;;7.57;4.40;;;;;;;6.04;75.31;100182.59;5030642;28;20077;-50
2022/03/10 05:00:40;;;;;;;7.38;4.32;;;;;;;5.99;76.02;100189.31;5027667;28;20516;-49
2022/03/10 05:03:07;;;;;;;9.05;4.57;;;;;;;5.95;74.84;100187.53;5056001;28;20044;-49
2022/03/10 05:05:34;;;;;;;6.75;4.95;;;;;;;5.88;75.80;100184.84;5026916;28;20049;-51
2022/03/10 05:08:00;;;;;;;8.25;4.07;;;;;;;5.86;75.65;100185.66;5026205;28;20081;-46
2022/03/10 05:10:27;;;;;;;10.27;3.72;;;;;;;5.82;76.07;100191.56;5025507;28;20659;-46
2022/03/10 05:12:57;;;;;;;7.78;4.80;;;;;;;5.80;75.05;100194.09;5024611;28;20053;-49
2022/03/10 05:15:26;;;;;;;7.70;4.25;;;;;;;5.77;75.39;100199.19;5028322;28;20041;-48
2022/03/10 05:17:53;;;;;;;8.15;5.28;;;;;;;5.76;75.23;100189.75;5022827;28;20114;-45
2022/03/10 05:20:20;;;;;;;8.50;5.57;;;;;;;5.76;76.28;100187.19;5029842;28;20123;-45
2022/03/10 05:22:50;;;;;;;8.73;4.75;;;;;;;5.76;75.82;100184.63;5024749;28;20054;-47
2022/03/10 05:25:18;;;;;;;12.02;5.00;;;;;;;5.78;75.23;100182.94;5026495;28;20049;-47
2022/03/10 05:27:46;;;;;;;8.13;4.28;;;;;;;5.77;76.42;100184.66;5026447;28;20473;-44
2022/03/10 05:30:13;;;;;;;8.55;4.97;;;;;;;5.79;76.66;100182.09;5025698;28;20049;-47
2022/03/10 05:32:40;;;;;;;8.20;4.40;;;;;;;5.77;76.46;100176.94;5029142;28;20119;-45
2022/03/10 05:35:08;;;;;;;8.80;4.57;;;;;;;5.81;75.40;100171.84;5023241;28;20041;-49
2022/03/10 05:37:36;;;;;;;13.65;5.55;;;;;;;5.81;76.34;100167.56;5028634;28;20098;-49
2022/03/10 05:40:06;;;;;;;7.25;3.85;;;;;;;5.83;76.08;100172.72;5027332;28;20061;-46
2022/03/10 05:42:32;;;;;;;8.57;5.35;;;;;;;5.87;75.71;100167.69;5026107;28;20213;-47
2022/03/10 05:44:59;;;;;;;11.32;5.93;;;;;;;5.89;75.86;100178.00;5025867;28;20500;-45
2022/03/10 05:47:25;;;;;;;9.02;4.68;;;;;;;5.90;75.05;100172.88;5030101;28;20100;-46
2022/03/10 05:49:52;;;;;;;8.65;5.25;;;;;;;5.91;75.76;100169.47;5025548;28;20053;-46
2022/03/10 05:52:18;;;;;;;9.43;4.60;;;;;;;5.93;75.62;100174.66;5024172;28;20045;-45
2022/03/10 05:54:50;;;;;;;7.43;4.68;;;;;;;5.91;75.76;100169.47;5027907;28;20139;-51
2022/03/10 05:57:16;;;;;;;8.52;4.88;;;;;;;5.86;75.06;100168.53;5027884;28;20053;-44
2022/03/10 05:59:45;;;;;;;8.13;5.30;;;;;;;5.88;75.66;100163.44;5026979;28;20053;-46
2022/03/10 06:02:14;;;;;;;10.60;5.63;;;;;;;5.88;75.81;100166.00;5028175;28;20072;-49
2022/03/10 06:04:41;;;;;;;12.60;5.93;;;;;;;5.82;76.47;100166.75;5024491;28;20053;-43
2022/03/10 06:07:08;;;;;;;11.73;5.47;;;;;;;5.81;76.27;100167.56;5029244;28;20109;-49
2022/03/10 06:09:54;;;;;;;12.65;6.25;;;;;;;5.76;75.86;100169.19;5026711;28;20079;-49
2022/03/10 06:12:21;;;;;;;8.85;5.45;;;;;;;5.71;75.93;100176.81;5023593;28;20045;-47
2022/03/10 06:14:54;;;;;;;11.30;6.20;;;;;;;5.74;76.17;100176.03;5009062;28;20041;-45
2022/03/10 06:17:21;;;;;;;10.55;6.35;;;;;;;5.72;75.70;100173.41;5024940;28;20567;-47
2022/03/10 06:19:48;;;;;;;12.05;6.75;;;;;;;5.73;76.34;100171.69;5028618;28;20091;-47
2022/03/10 06:22:17;;;;;;;11.65;6.10;;;;;;;5.77;75.54;100176.94;5027265;28;20053;-50
2022/03/10 06:24:44;;;;;;;12.02;5.88;;;;;;;5.83;75.81;100172.72;5025809;28;20489;-46
2022/03/10 06:27:13;;;;;;;10.25;5.82;;;;;;;5.83;76.67;100173.63;5026612;28;20061;-43
2022/03/10 06:29:40;;;;;;;11.02;6.00;;;;;;;5.88;76.42;100169.41;5027808;28;20049;-46
2022/03/10 06:32:09;;;;;;;15.85;7.30;;;;;;;5.91;76.69;100168.59;5026015;28;20052;-49
2022/03/10 06:34:38;;;;;;;7.53;4.43;;;;;;;5.98;76.89;100160.16;5027148;28;20110;-43
2022/03/10 06:37:05;;;;;;;9.88;5.18;;;;;;;6.02;77.19;100161.09;5027016;28;20053;-48
2022/03/10 06:39:32;;;;;;;7.85;5.40;;;;;;;6.10;77.10;100159.56;5027549;28;20114;-43
2022/03/10 06:41:59;;;;;;;11.07;6.15;;;;;;;6.15;75.85;100163.06;5027530;28;20054;-47
2022/03/10 06:44:25;;;;;;;9.50;4.85;;;;;;;6.20;76.70;100162.28;5021922;28;20120;-48
2022/03/10 06:46:52;;;;;;;7.38;5.03;;;;;;;6.28;75.29;100168.41;5024886;28;20053;-47
2022/03/10 06:49:20;;;;;;;14.40;6.65;;;;;;;6.32;76.09;100164.19;5052500;28;20053;-44
2022/03/10 06:51:48;;;;;;;9.63;5.30;;;;;;;6.37;75.76;100162.56;5024246;28;20444;-45
2022/03/10 06:54:16;;;;;;;9.18;5.80;;;;;;;6.43;76.43;100168.66;5022199;28;20055;-48
2022/03/10 06:56:43;;;;;;;10.75;3.90;;;;;;;6.46;76.34;100167.00;5023520;28;20714;-47
2022/03/10 06:59:09;;;;;;;10.20;5.97;;;;;;;6.51;76.33;100170.50;5028492;28;20098;-44
2022/03/10 07:01:36;;;;;;;7.30;4.80;;;;;;;6.55;75.36;100161.97;5022142;28;20049;-47
2022/03/10 07:04:03;;;;;;;10.50;6.35;;;;;;;6.55;76.29;100168.00;5024761;28;20111;-50
2022/03/10 07:06:30;;;;;;;11.18;6.82;;;;;;;6.61;75.80;100174.97;5025351;28;20099;-46
2022/03/10 07:08:57;;;;;;;7.25;5.43;;;;;;;6.64;75.69;100166.41;5027572;28;20049;-44
2022/03/10 07:11:25;;;;;;;11.13;6.25;;;;;;;6.68;76.23;100157.88;5026184;28;20053;-47
2022/03/10 07:13:52;;;;;;;9.20;5.28;;;;;;;6.69;75.32;100165.63;5024838;28;20522;-51
2022/03/10 07:16:19;;;;;;;12.35;4.85;;;;;;;6.73;75.97;100161.41;5024642;28;20638;-49
2022/03/10 07:18:50;;;;;;;13.70;6.85;;;;;;;6.79;75.02;100165.78;5018755;28;20049;-49
2022/03/10 07:21:18;;;;;;;13.18;6.68;;;;;;;6.80;75.21;100157.22;5025277;28;20053;-46
2022/03/10 07:23:45;;;;;;;13.70;7.00;;;;;;;6.85;74.07;100165.03;5021893;28;20805;-46
2022/03/10 07:26:12;;;;;;;10.73;5.82;;;;;;;6.90;74.92;100168.53;5023411;28;20049;-46
2022/03/10 07:28:39;;;;;;;8.35;4.97;;;;;;;6.96;74.03;100158.31;5019016;28;20103;-49
2022/03/10 07:31:06;;;;;;;7.97;4.93;;;;;;;6.99;74.34;100165.22;5020519;28;20091;-54
2022/03/10 07:33:33;;;;;;;8.95;5.22;;;;;;;6.99;73.76;100157.50;5021817;28;20080;-50
2022/03/10 07:36:00;;;;;;;11.10;6.32;;;;;;;7.01;74.12;100160.94;5020681;28;20077;-48
2022/03/10 07:38:27;;;;;;;9.07;5.22;;;;;;;6.97;73.35;100159.16;5022068;28;20501;-51
2022/03/10 07:40:54;;;;;;;9.20;4.80;;;;;;;6.93;74.14;100153.13;5021733;28;20053;-50
2022/03/10 07:43:21;;;;;;;9.18;5.38;;;;;;;6.93;74.48;100156.53;5023920;28;20053;-49
2022/03/10 07:45:49;;;;;;;10.68;6.03;;;;;;;6.96;74.77;100147.13;5020221;28;20115;-51
2022/03/10 07:48:15;;;;;;;10.27;5.70;;;;;;;6.97;74.73;100151.44;5020655;28;20099;-47
2022/03/10 07:50:42;;;;;;;10.05;5.68;;;;;;;7.00;74.98;100148.91;5018740;28;20053;-50
2022/03/10 07:53:08;;;;;;;11.32;5.80;;;;;;;7.26;74.21;100153.53;5021865;28;20071;-45
2022/03/10 07:55:35;;;;;;;11.82;6.32;;;;;;;7.80;73.29;100148.16;5020858;28;20489;-46
2022/03/10 07:58:03;;;;;;;10.98;6.20;;;;;;;8.43;71.91;100155.56;5023095;28;20119;-49
2022/03/10 08:00:32;;;;;;;13.00;6.40;;;;;;;8.91;69.75;100152.47;5017243;28;20081;-46
2022/03/10 08:02:58;;;;;;;9.15;5.72;;;;;;;9.21;68.88;100145.75;5026410;28;20704;-47
2022/03/10 08:05:25;;;;;;;14.18;6.07;;;;;;;9.57;68.28;100147.59;5019910;28;20036;-50
2022/03/10 08:07:52;;;;;;;14.15;5.97;;;;;;;9.75;66.90;100146.78;5021789;28;20057;-53
2022/03/10 08:10:18;;;;;;;9.48;5.38;;;;;;;9.93;66.57;100156.28;5018505;28;20046;-49
2022/03/10 08:12:45;;;;;;;10.35;5.70;;;;;;;10.18;65.79;100151.16;5020474;28;20045;-52
2022/03/10 08:15:17;;;;;;;8.27;5.63;;;;;;;10.49;64.95;100148.59;5024119;28;20133;-51
2022/03/10 08:17:44;;;;;;;9.52;5.80;;;;;;;10.82;64.41;100147.69;5021101;28;20103;-52
2022/03/10 08:20:11;;;;;;;9.13;5.55;;;;;;;11.05;63.87;100140.69;5020425;28;20053;-46
2022/03/10 08:22:37;;;;;;;11.05;6.90;;;;;;;11.23;63.05;100138.91;5021790;28;20550;-44
2022/03/10 08:25:04;;;;;;;10.90;5.70;;;;;;;11.54;61.83;100154.34;5019780;28;20083;-48
2022/03/10 08:27:31;;;;;;;11.95;6.18;;;;;;;11.81;61.43;100146.41;5021338;28;20045;-46
2022/03/10 08:29:58;;;;;;;12.82;4.32;;;;;;;12.11;60.11;100154.00;5023009;28;20444;-48
2022/03/10 08:32:26;;;;;;;10.52;6.72;;;;;;;12.22;60.03;100147.00;5020805;28;20085;-48
2022/03/10 08:35:11;;;;;;;8.35;5.68;;;;;;;12.23;59.31;100158.25;5020582;28;20064;-46
2022/03/10 08:37:38;;;;;;;8.45;5.28;;;;;;;12.25;59.39;100157.38;5022283;28;20049;-49
2022/03/10 08:40:15;;;;;;;8.02;5.30;;;;;;;12.38;59.27;100159.88;5019775;28;20509;-48
2022/03/10 08:42:43;;;;;;;8.85;6.38;;;;;;;12.48;59.48;100158.91;5024400;28;20053;-46
2022/03/10 08:45:10;;;;;;;10.50;6.10;;;;;;;12.71;60.01;100161.28;5022836;28;20123;-49
2022/03/10 08:47:37;;;;;;;11.00;5.88;;;;;;;12.93;58.66;100165.41;5021743;28;20125;-55
2022/03/10 08:50:04;;;;;;;8.93;5.18;;;;;;;13.20;58.01;100159.03;5019675;28;20054;-45
2022/03/10 08:52:32;;;;;;;8.35;4.32;;;;;;;13.51;57.43;100150.00;5018520;28;20064;-51
2022/03/10 08:54:59;;;;;;;8.10;3.67;;;;;;;13.67;56.46;100150.69;5020992;28;20429;-48
2022/03/10 08:57:25;;;;;;;9.00;5.22;;;;;;;13.94;56.50;100147.69;5020007;28;20070;-48
2022/03/10 08:59:52;;;;;;;7.30;5.03;;;;;;;14.05;55.73;100151.00;5022313;28;20096;-47
2022/03/10 09:02:21;;;;;;;8.50;5.20;;;;;;;14.09;54.91;100165.69;5025020;28;20053;-52
2022/03/10 09:04:48;;;;;;;5.82;4.35;;;;;;;14.35;54.41;100146.19;5022389;28;20060;-47
2022/03/10 09:07:15;;;;;;;12.32;6.10;;;;;;;14.59;54.65;100141.41;5020033;28;20463;-55
2022/03/10 09:09:42;;;;;;;8.52;4.97;;;;;;;14.85;53.55;100155.75;5022371;28;20050;-50
2022/03/10 09:12:09;;;;;;;9.85;5.55;;;;;;;14.94;53.30;100156.47;5023710;28;20614;-48
2022/03/10 09:14:35;;;;;;;9.48;5.30;;;;;;;15.12;53.12;100156.13;5020255;28;20057;-50
2022/03/10 09:17:02;;;;;;;7.50;4.85;;;;;;;15.52;53.09;100174.44;5023221;28;20045;-51
2022/03/10 09:19:29;;;;;;;8.60;5.00;;;;;;;15.75;52.24;100167.88;5020447;28;20065;-54
2022/03/10 09:21:56;;;;;;;7.50;4.93;;;;;;;15.91;51.97;100166.63;5013129;28;20057;-51
2022/03/10 09:24:22;;;;;;;11.18;5.30;;;;;;;15.96;51.25;100177.00;5017813;28;20057;-56
2022/03/10 09:26:49;;;;;;;7.53;3.20;;;;;;;16.01;50.57;100166.44;5024804;28;20280;-53
2022/03/10 09:29:16;;;;;;;4.90;3.72;;;;;;;16.29;50.68;100160.56;5022575;28;20111;-50
2022/03/10 09:31:42;;;;;;;5.32;4.07;;;;;;;16.28;49.66;100162.28;5025548;28;20103;-55
2022/03/10 09:34:09;;;;;;;7.57;3.83;;;;;;;16.30;49.79;100170.09;5025012;28;20057;-50
2022/03/10 09:36:36;;;;;;;7.63;4.50;;;;;;;16.55;49.97;100182.56;5022425;28;20045;-49
2022/03/10 09:39:02;;;;;;;7.00;4.82;;;;;;;16.36;49.42;100169.97;5024799;28;20057;-49
2022/03/10 09:41:29;;;;;;;4.25;3.60;;;;;;;16.29;49.82;100177.09;5021908;28;20049;-49
2022/03/10 09:43:56;;;;;;;6.82;4.25;;;;;;;16.40;49.73;100161.16;5027406;28;20050;-48
2022/03/10 09:46:22;;;;;;;5.65;4.28;;;;;;;16.27;49.97;100157.97;5020910;28;20159;-52
2022/03/10 09:48:50;;;;;;;5.75;4.97;;;;;;;16.30;49.14;100175.34;5027882;28;20164;-49
2022/03/10 09:51:21;;;;;;;8.27;4.28;;;;;;;16.34;48.99;100174.34;5024932;28;20049;-51
2022/03/10 09:53:48;;;;;;;5.63;4.22;;;;;;;16.32;50.23;100169.16;5024968;28;20045;-55
2022/03/10 09:56:15;;;;;;;5.20;4.03;;;;;;;16.30;49.59;100164.88;5022690;28;20124;-55
2022/03/10 09:58:41;;;;;;;4.75;1.65;;;;;;;16.51;49.72;100178.31;5024082;28;20437;-50
2022/03/10 10:01:08;;;;;;;5.72;3.80;;;;;;;16.68;50.30;100170.03;5020550;28;20042;-55
2022/03/10 10:03:35;;;;;;;6.10;4.07;;;;;;;17.05;50.18;100173.41;5020269;28;20099;-55
2022/03/10 10:06:05;;;;;;;7.35;4.78;;;;;;;17.14;49.25;100167.97;5019843;28;20045;-54
2022/03/10 10:08:32;;;;;;;8.15;4.60;;;;;;;17.13;49.19;100171.47;5025334;28;20062;-55
2022/03/10 10:11:00;;;;;;;7.82;4.63;;;;;;;16.92;49.22;100168.50;5021805;28;20099;-57
2022/03/10 10:16:06;;;;;;;6.47;2.88;;;;;;;17.24;48.96;100158.09;5055695;27;20417;-58
2022/03/10 10:18:35;;;;;;;6.20;3.20;;;;;;;17.20;48.88;100157.28;5047196;28;20057;-54
2022/03/10 10:21:14;;;;;;;6.05;2.75;;;;;;;17.29;49.03;100165.81;5040913;28;20124;-57
2022/03/10 10:23:41;;;;;;;4.40;2.58;;;;;;;17.41;48.86;100148.88;5042078;28;20128;-58
2022/03/10 10:26:10;;;;;;;4.28;1.80;;;;;;;17.12;47.87;100143.56;5040502;28;20049;-51
2022/03/10 10:28:45;;;;;;;;;;;;;;;16.88;49.12;100145.94;5046050;28;20042;-50
2022/03/10 10:34:08;;;;;;;5.97;2.45;;;;;;;16.91;49.17;100145.88;5032460;28;20402;-55
2022/03/10 10:36:37;;;;;;;5.05;1.73;;;;;;;17.26;49.40;100143.16;5005357;28;20139;-52
2022/03/10 10:39:10;;;;;;;3.95;1.67;;;;;;;17.17;48.70;100141.69;4983200;28;20685;-56
2022/03/10 10:41:39;;;;;;;3.97;1.52;;;;;;;17.13;48.61;100145.31;4996518;28;20046;-58
2022/03/10 10:44:08;;;;;;;8.60;2.10;;;;;;;17.03;48.67;100138.59;4999040;28;20053;-53
2022/03/10 10:49:15;;;;;;;4.47;2.78;;;;;;;17.13;50.53;100140.06;5067608;27;20415;-52
2022/03/10 10:59:37;;;;;;;2.78;1.70;;;;;;;17.26;48.30;100131.88;4999857;28;20433;-45
2022/03/10 11:04:48;;;;;;;4.70;1.90;;;;;;;16.70;50.03;100122.03;5037604;27;20409;-50
2022/03/10 11:07:18;;;;;;;4.72;2.47;;;;;;;16.37;50.47;100115.91;5024748;28;20473;-52
2022/03/10 11:09:47;;;;;;;4.15;1.80;;;;;;;15.88;51.51;100114.44;5054811;28;20049;-54
2022/03/10 11:12:16;;;;;;;5.88;2.13;;;;;;;15.73;52.19;100109.59;5023586;28;20061;-48
2022/03/10 11:14:44;;;;;;;4.38;2.20;;;;;;;15.65;52.96;100115.88;5030849;28;20042;-52
2022/03/10 11:17:13;;;;;;;4.53;1.92;;;;;;;15.48;53.22;100115.38;5032668;28;20089;-54
2022/03/10 11:19:46;;;;;;;4.72;1.88;;;;;;;15.45;53.21;100110.22;5034291;28;20069;-54
2022/03/10 11:25:35;;;;;;;6.82;3.53;;;;;;;15.38;54.52;100102.53;5034976;28;20406;-53
2022/03/10 11:28:28;;;;;;;6.03;3.35;;;;;;;15.47;54.78;100103.22;5000389;28;20176;-54
2022/03/10 11:30:59;;;;;;;5.53;3.20;;;;;;;15.31;53.01;100100.94;5003799;28;20052;-48
2022/03/10 11:33:32;;;;;;;5.20;4.15;;;;;;;15.27;54.05;100105.34;5002332;28;20121;-50
2022/03/10 11:35:59;;;;;;;4.80;3.58;;;;;;;15.20;53.55;100103.78;4997680;28;20046;-50
2022/03/10 11:38:50;;;;;;;4.18;3.25;;;;;;;15.18;54.54;100096.88;5008166;28;20124;-54
2022/03/10 11:41:17;;;;;;;4.97;2.90;;;;;;;15.00;53.81;100086.78;5001601;28;20057;-50
2022/03/10 11:43:58;;;;;;;4.43;3.17;;;;;;;14.86;54.34;100084.47;5002030;28;20178;-55
2022/03/10 11:46:28;;;;;;;5.13;2.97;;;;;;;14.85;54.40;100082.75;4999772;28;20534;-52
2022/03/10 11:49:12;;;;;;;4.75;2.90;;;;;;;14.81;55.17;100080.22;5001422;28;20046;-55
2022/03/10 11:54:24;;;;;;;3.33;1.15;;;;;;;14.83;54.77;100076.69;5058106;27;20379;-51
2022/03/10 12:02:30;;;;;;;3.17;1.92;;;;;;;14.88;54.86;100072.25;5008978;28;21174;-50
2022/03/10 12:04:58;;;;;;;3.35;1.63;;;;;;;14.94;55.33;100084.31;5014675;28;20039;-52
2022/03/10 12:07:29;;;;;;;4.75;1.67;;;;;;;15.01;54.22;100072.00;5001926;28;20059;-48